Terminal Aerodrome Forecast
Issued by NWS Wilmington, OH

Current Version | Previous Version | Text Only | Print | Product List | Glossary Off
Versions: 1 2 3 4 5 6 7 8 9 10 11 12 13 14

000
FTUS41 KILN 151300 AAA
TAFDAY
TAF AMD
KDAY 151341Z 1514/1612 32015G22KT P6SM BKN025
     FM151800 32012G20KT P6SM BKN035
     FM160000 VRB03KT P6SM SKC=

USA.gov is the U.S. government's official web portal to all federal, state and local government web resources and services.